sensor_id;sensor_type;location;lat;lon;timestamp;temperature;humidity
39665;DHT22;26679;50.872;4.332;2023-04-07T00:00:50;10.40;99.90
39665;DHT22;26679;50.872;4.332;2023-04-07T00:03:16;10.50;99.90
39665;DHT22;26679;50.872;4.332;2023-04-07T00:05:41;10.40;99.90
39665;DHT22;26679;50.872;4.332;2023-04-07T00:08:07;10.40;99.90
39665;DHT22;26679;50.872;4.332;2023-04-07T00:10:32;10.30;99.90
39665;DHT22;26679;50.872;4.332;2023-04-07T00:12:58;10.30;99.90
39665;DHT22;26679;50.872;4.332;2023-04-07T00:15:23;10.30;99.90
39665;DHT22;26679;50.872;4.332;2023-04-07T00:17:49;10.20;99.90
39665;DHT22;26679;50.872;4.332;2023-04-07T00:20:14;10.20;99.90
39665;DHT22;26679;50.872;4.332;2023-04-07T00:22:40;10.20;99.90
39665;DHT22;26679;50.872;4.332;2023-04-07T00:25:06;10.20;99.90
39665;DHT22;26679;50.872;4.332;2023-04-07T00:27:31;10.20;99.90
39665;DHT22;26679;50.872;4.332;2023-04-07T00:29:57;10.10;99.90
39665;DHT22;26679;50.872;4.332;2023-04-07T00:32:22;10.00;99.90
39665;DHT22;26679;50.872;4.332;2023-04-07T00:34:48;10.00;99.90
39665;DHT22;26679;50.872;4.332;2023-04-07T00:37:13;10.10;99.90
39665;DHT22;26679;50.872;4.332;2023-04-07T00:39:39;10.00;99.90
39665;DHT22;26679;50.872;4.332;2023-04-07T00:42:05;10.00;99.90
39665;DHT22;26679;50.872;4.332;2023-04-07T00:44:31;10.00;99.90
39665;DHT22;26679;50.872;4.332;2023-04-07T00:46:56;10.00;99.90
39665;DHT22;26679;50.872;4.332;2023-04-07T00:49:22;10.00;99.90
39665;DHT22;26679;50.872;4.332;2023-04-07T00:51:48;10.00;99.90
39665;DHT22;26679;50.872;4.332;2023-04-07T00:54:14;10.00;99.90
39665;DHT22;26679;50.872;4.332;2023-04-07T00:56:39;10.00;99.90
39665;DHT22;26679;50.872;4.332;2023-04-07T00:59:05;10.00;99.90
39665;DHT22;26679;50.872;4.332;2023-04-07T01:04:38;10.00;99.90
39665;DHT22;26679;50.872;4.332;2023-04-07T01:07:05;10.00;99.90
39665;DHT22;26679;50.872;4.332;2023-04-07T01:09:35;10.00;99.90
39665;DHT22;26679;50.872;4.332;2023-04-07T01:14:41;10.00;99.90
39665;DHT22;26679;50.872;4.332;2023-04-07T01:17:10;10.10;99.90
39665;DHT22;26679;50.872;4.332;2023-04-07T01:19:46;10.10;99.90
39665;DHT22;26679;50.872;4.332;2023-04-07T01:22:14;10.20;99.90
39665;DHT22;26679;50.872;4.332;2023-04-07T01:24:44;10.30;99.90
39665;DHT22;26679;50.872;4.332;2023-04-07T01:27:19;10.30;99.90
39665;DHT22;26679;50.872;4.332;2023-04-07T01:29:45;10.30;99.90
39665;DHT22;26679;50.872;4.332;2023-04-07T01:32:19;10.40;99.90
39665;DHT22;26679;50.872;4.332;2023-04-07T01:34:46;10.40;99.90
39665;DHT22;26679;50.872;4.332;2023-04-07T01:37:13;10.50;99.90
39665;DHT22;26679;50.872;4.332;2023-04-07T01:39:39;10.50;99.90
39665;DHT22;26679;50.872;4.332;2023-04-07T01:42:05;10.50;99.90
39665;DHT22;26679;50.872;4.332;2023-04-07T01:44:31;10.50;99.90
39665;DHT22;26679;50.872;4.332;2023-04-07T01:46:57;10.60;99.90
39665;DHT22;26679;50.872;4.332;2023-04-07T01:49:24;10.60;99.90
39665;DHT22;26679;50.872;4.332;2023-04-07T01:51:49;10.60;99.90
39665;DHT22;26679;50.872;4.332;2023-04-07T01:54:15;10.50;99.90
39665;DHT22;26679;50.872;4.332;2023-04-07T01:56:42;10.50;99.90
39665;DHT22;26679;50.872;4.332;2023-04-07T01:59:08;10.50;99.90
39665;DHT22;26679;50.872;4.332;2023-04-07T02:01:33;10.50;99.90
39665;DHT22;26679;50.872;4.332;2023-04-07T02:06:46;10.50;99.90
39665;DHT22;26679;50.872;4.332;2023-04-07T02:09:14;10.50;99.90
39665;DHT22;26679;50.872;4.332;2023-04-07T02:11:40;10.50;99.90
39665;DHT22;26679;50.872;4.332;2023-04-07T02:14:06;10.40;99.90
39665;DHT22;26679;50.872;4.332;2023-04-07T02:16:33;10.40;99.90
39665;DHT22;26679;50.872;4.332;2023-04-07T02:18:59;10.40;99.90
39665;DHT22;26679;50.872;4.332;2023-04-07T02:21:26;10.40;99.90
39665;DHT22;26679;50.872;4.332;2023-04-07T02:23:52;10.40;99.90
39665;DHT22;26679;50.872;4.332;2023-04-07T02:26:18;10.30;99.90
39665;DHT22;26679;50.872;4.332;2023-04-07T02:28:43;10.30;99.90
39665;DHT22;26679;50.872;4.332;2023-04-07T02:31:09;10.40;99.90
39665;DHT22;26679;50.872;4.332;2023-04-07T02:33:35;10.40;99.90
39665;DHT22;26679;50.872;4.332;2023-04-07T02:36:00;10.40;99.90
39665;DHT22;26679;50.872;4.332;2023-04-07T02:38:26;10.40;99.90
39665;DHT22;26679;50.872;4.332;2023-04-07T02:40:51;10.40;99.90
39665;DHT22;26679;50.872;4.332;2023-04-07T02:43:18;10.30;99.90
39665;DHT22;26679;50.872;4.332;2023-04-07T02:45:44;10.40;99.90
39665;DHT22;26679;50.872;4.332;2023-04-07T02:48:10;10.30;99.90
39665;DHT22;26679;50.872;4.332;2023-04-07T02:50:35;10.30;99.90
39665;DHT22;26679;50.872;4.332;2023-04-07T02:53:01;10.20;99.90
39665;DHT22;26679;50.872;4.332;2023-04-07T02:55:26;10.30;99.90
39665;DHT22;26679;50.872;4.332;2023-04-07T02:57:52;10.30;99.90
39665;DHT22;26679;50.872;4.332;2023-04-07T03:00:17;10.30;99.90
39665;DHT22;26679;50.872;4.332;2023-04-07T03:02:43;10.30;99.90
39665;DHT22;26679;50.872;4.332;2023-04-07T03:05:08;10.30;99.90
39665;DHT22;26679;50.872;4.332;2023-04-07T03:07:34;10.20;99.90
39665;DHT22;26679;50.872;4.332;2023-04-07T03:09:59;10.20;99.90
39665;DHT22;26679;50.872;4.332;2023-04-07T03:12:25;10.20;99.90
39665;DHT22;26679;50.872;4.332;2023-04-07T03:14:51;10.20;99.90
39665;DHT22;26679;50.872;4.332;2023-04-07T03:17:16;10.20;99.90
39665;DHT22;26679;50.872;4.332;2023-04-07T03:19:42;10.10;99.90
39665;DHT22;26679;50.872;4.332;2023-04-07T03:22:07;10.20;99.90
39665;DHT22;26679;50.872;4.332;2023-04-07T03:24:33;10.10;99.90
39665;DHT22;26679;50.872;4.332;2023-04-07T03:26:58;10.10;99.90
39665;DHT22;26679;50.872;4.332;2023-04-07T03:29:24;10.10;99.90
39665;DHT22;26679;50.872;4.332;2023-04-07T03:31:49;10.10;99.90
39665;DHT22;26679;50.872;4.332;2023-04-07T03:34:15;10.20;99.90
39665;DHT22;26679;50.872;4.332;2023-04-07T03:36:41;10.20;99.90
39665;DHT22;26679;50.872;4.332;2023-04-07T03:39:06;10.20;99.90
39665;DHT22;26679;50.872;4.332;2023-04-07T03:41:32;10.20;99.90
39665;DHT22;26679;50.872;4.332;2023-04-07T03:43:57;10.20;99.90
39665;DHT22;26679;50.872;4.332;2023-04-07T03:46:23;10.20;99.90
39665;DHT22;26679;50.872;4.332;2023-04-07T03:48:52;10.20;99.90
39665;DHT22;26679;50.872;4.332;2023-04-07T03:51:18;10.20;99.90
39665;DHT22;26679;50.872;4.332;2023-04-07T03:53:43;10.20;99.90
39665;DHT22;26679;50.872;4.332;2023-04-07T03:56:09;10.20;99.90
39665;DHT22;26679;50.872;4.332;2023-04-07T03:58:35;10.20;99.90
39665;DHT22;26679;50.872;4.332;2023-04-07T04:01:01;10.30;99.90
39665;DHT22;26679;50.872;4.332;2023-04-07T04:03:26;10.30;99.90
39665;DHT22;26679;50.872;4.332;2023-04-07T04:05:52;10.40;99.90
39665;DHT22;26679;50.872;4.332;2023-04-07T04:08:18;10.40;99.90
39665;DHT22;26679;50.872;4.332;2023-04-07T04:10:44;10.40;99.90
39665;DHT22;26679;50.872;4.332;2023-04-07T04:13:09;10.40;99.90
39665;DHT22;26679;50.872;4.332;2023-04-07T04:15:35;10.40;99.90
39665;DHT22;26679;50.872;4.332;2023-04-07T04:18:00;10.40;99.90
39665;DHT22;26679;50.872;4.332;2023-04-07T04:20:26;10.40;99.90
39665;DHT22;26679;50.872;4.332;2023-04-07T04:22:51;10.30;99.90
39665;DHT22;26679;50.872;4.332;2023-04-07T04:25:17;10.40;99.90
39665;DHT22;26679;50.872;4.332;2023-04-07T04:27:42;10.40;99.90
39665;DHT22;26679;50.872;4.332;2023-04-07T04:30:08;10.40;99.90
39665;DHT22;26679;50.872;4.332;2023-04-07T04:32:34;10.20;99.90
39665;DHT22;26679;50.872;4.332;2023-04-07T04:35:00;10.20;99.90
39665;DHT22;26679;50.872;4.332;2023-04-07T04:37:26;10.20;99.90
39665;DHT22;26679;50.872;4.332;2023-04-07T04:39:51;10.20;99.90
39665;DHT22;26679;50.872;4.332;2023-04-07T04:42:17;10.30;99.90
39665;DHT22;26679;50.872;4.332;2023-04-07T04:44:42;10.50;99.90
39665;DHT22;26679;50.872;4.332;2023-04-07T04:47:08;10.40;99.90
39665;DHT22;26679;50.872;4.332;2023-04-07T04:49:33;10.40;99.90
39665;DHT22;26679;50.872;4.332;2023-04-07T04:51:59;10.40;99.90
39665;DHT22;26679;50.872;4.332;2023-04-07T04:54:24;10.40;99.90
39665;DHT22;26679;50.872;4.332;2023-04-07T04:56:50;10.30;99.90
39665;DHT22;26679;50.872;4.332;2023-04-07T04:59:15;10.20;99.90
39665;DHT22;26679;50.872;4.332;2023-04-07T05:01:41;10.20;99.90
39665;DHT22;26679;50.872;4.332;2023-04-07T05:04:06;10.20;99.90
39665;DHT22;26679;50.872;4.332;2023-04-07T05:06:33;10.20;99.90
39665;DHT22;26679;50.872;4.332;2023-04-07T05:08:59;10.10;99.90
39665;DHT22;26679;50.872;4.332;2023-04-07T05:11:24;10.20;99.90
39665;DHT22;26679;50.872;4.332;2023-04-07T05:13:50;10.00;99.90
39665;DHT22;26679;50.872;4.332;2023-04-07T05:16:15;9.90;99.90
39665;DHT22;26679;50.872;4.332;2023-04-07T05:18:41;9.80;99.90
39665;DHT22;26679;50.872;4.332;2023-04-07T05:21:06;9.80;99.90
39665;DHT22;26679;50.872;4.332;2023-04-07T05:23:32;9.80;99.90
39665;DHT22;26679;50.872;4.332;2023-04-07T05:25:57;9.80;99.90
39665;DHT22;26679;50.872;4.332;2023-04-07T05:28:23;9.80;99.90
39665;DHT22;26679;50.872;4.332;2023-04-07T05:30:49;9.90;99.90
39665;DHT22;26679;50.872;4.332;2023-04-07T05:33:15;9.80;99.90
39665;DHT22;26679;50.872;4.332;2023-04-07T05:35:42;9.70;99.90
39665;DHT22;26679;50.872;4.332;2023-04-07T05:38:08;9.60;99.90
39665;DHT22;26679;50.872;4.332;2023-04-07T05:40:34;9.70;99.90
39665;DHT22;26679;50.872;4.332;2023-04-07T05:43:00;9.80;99.90
39665;DHT22;26679;50.872;4.332;2023-04-07T05:45:26;9.60;99.90
39665;DHT22;26679;50.872;4.332;2023-04-07T05:47:51;9.70;99.90
39665;DHT22;26679;50.872;4.332;2023-04-07T05:50:17;9.80;99.90
39665;DHT22;26679;50.872;4.332;2023-04-07T05:52:42;9.90;99.90
39665;DHT22;26679;50.872;4.332;2023-04-07T05:55:08;9.80;99.90
39665;DHT22;26679;50.872;4.332;2023-04-07T05:57:33;9.80;99.90
39665;DHT22;26679;50.872;4.332;2023-04-07T05:59:59;9.80;99.90
39665;DHT22;26679;50.872;4.332;2023-04-07T06:02:25;9.90;99.90
39665;DHT22;26679;50.872;4.332;2023-04-07T06:04:52;9.90;99.90
39665;DHT22;26679;50.872;4.332;2023-04-07T06:07:17;9.90;99.90
39665;DHT22;26679;50.872;4.332;2023-04-07T06:09:44;9.80;99.90
39665;DHT22;26679;50.872;4.332;2023-04-07T06:12:10;9.80;99.90
39665;DHT22;26679;50.872;4.332;2023-04-07T06:14:37;9.90;99.90
39665;DHT22;26679;50.872;4.332;2023-04-07T06:17:02;9.90;99.90
39665;DHT22;26679;50.872;4.332;2023-04-07T06:19:28;9.90;99.90
39665;DHT22;26679;50.872;4.332;2023-04-07T06:21:53;9.90;99.90
39665;DHT22;26679;50.872;4.332;2023-04-07T06:24:19;9.80;99.90
39665;DHT22;26679;50.872;4.332;2023-04-07T06:26:47;9.80;99.90
39665;DHT22;26679;50.872;4.332;2023-04-07T06:29:13;9.80;99.90
39665;DHT22;26679;50.872;4.332;2023-04-07T06:31:39;9.70;99.90
39665;DHT22;26679;50.872;4.332;2023-04-07T06:34:04;9.70;99.90
39665;DHT22;26679;50.872;4.332;2023-04-07T06:36:30;9.70;99.90
39665;DHT22;26679;50.872;4.332;2023-04-07T06:38:55;9.70;99.90
39665;DHT22;26679;50.872;4.332;2023-04-07T06:41:21;9.80;99.90
39665;DHT22;26679;50.872;4.332;2023-04-07T06:43:47;9.90;99.90
39665;DHT22;26679;50.872;4.332;2023-04-07T06:46:13;10.00;99.90
39665;DHT22;26679;50.872;4.332;2023-04-07T06:48:39;10.00;99.90
39665;DHT22;26679;50.872;4.332;2023-04-07T06:51:05;10.20;99.90
39665;DHT22;26679;50.872;4.332;2023-04-07T06:53:30;10.20;99.90
39665;DHT22;26679;50.872;4.332;2023-04-07T06:58:32;10.50;99.90
39665;DHT22;26679;50.872;4.332;2023-04-07T07:00:58;10.50;99.90
39665;DHT22;26679;50.872;4.332;2023-04-07T07:03:24;10.50;99.90
39665;DHT22;26679;50.872;4.332;2023-04-07T07:05:53;10.50;99.90
39665;DHT22;26679;50.872;4.332;2023-04-07T07:08:18;10.60;99.90
39665;DHT22;26679;50.872;4.332;2023-04-07T07:10:44;10.60;99.90
39665;DHT22;26679;50.872;4.332;2023-04-07T07:13:09;10.60;99.90
39665;DHT22;26679;50.872;4.332;2023-04-07T07:15:35;10.60;99.90
39665;DHT22;26679;50.872;4.332;2023-04-07T07:18:01;10.70;99.90
39665;DHT22;26679;50.872;4.332;2023-04-07T07:20:30;10.80;99.90
39665;DHT22;26679;50.872;4.332;2023-04-07T07:22:55;10.80;99.90
39665;DHT22;26679;50.872;4.332;2023-04-07T07:25:27;10.90;99.90
39665;DHT22;26679;50.872;4.332;2023-04-07T07:27:56;10.80;99.90
39665;DHT22;26679;50.872;4.332;2023-04-07T07:30:22;10.60;99.90
39665;DHT22;26679;50.872;4.332;2023-04-07T07:32:48;11.00;99.90
39665;DHT22;26679;50.872;4.332;2023-04-07T07:35:17;10.90;99.90
39665;DHT22;26679;50.872;4.332;2023-04-07T07:37:42;10.00;99.90
39665;DHT22;26679;50.872;4.332;2023-04-07T07:40:09;11.40;99.90
39665;DHT22;26679;50.872;4.332;2023-04-07T07:42:36;11.20;99.90
39665;DHT22;26679;50.872;4.332;2023-04-07T07:45:02;12.10;99.90
39665;DHT22;26679;50.872;4.332;2023-04-07T07:47:28;11.40;99.90
39665;DHT22;26679;50.872;4.332;2023-04-07T07:49:56;11.40;99.90
39665;DHT22;26679;50.872;4.332;2023-04-07T07:52:23;11.30;99.90
39665;DHT22;26679;50.872;4.332;2023-04-07T07:54:49;11.20;99.90
39665;DHT22;26679;50.872;4.332;2023-04-07T07:57:15;12.10;99.90
39665;DHT22;26679;50.872;4.332;2023-04-07T07:59:41;10.90;99.90
39665;DHT22;26679;50.872;4.332;2023-04-07T08:02:07;11.00;99.90
39665;DHT22;26679;50.872;4.332;2023-04-07T08:04:34;10.90;99.90
39665;DHT22;26679;50.872;4.332;2023-04-07T08:07:00;11.00;99.90
39665;DHT22;26679;50.872;4.332;2023-04-07T08:09:26;9.80;99.90
39665;DHT22;26679;50.872;4.332;2023-04-07T08:11:52;10.90;99.90
39665;DHT22;26679;50.872;4.332;2023-04-07T08:14:18;12.20;99.90
39665;DHT22;26679;50.872;4.332;2023-04-07T08:16:47;11.00;99.90
39665;DHT22;26679;50.872;4.332;2023-04-07T08:19:13;11.20;99.90
39665;DHT22;26679;50.872;4.332;2023-04-07T08:24:15;11.50;99.90
39665;DHT22;26679;50.872;4.332;2023-04-07T08:26:41;11.50;99.90
39665;DHT22;26679;50.872;4.332;2023-04-07T08:29:07;11.50;99.90
39665;DHT22;26679;50.872;4.332;2023-04-07T08:31:39;11.40;99.90
39665;DHT22;26679;50.872;4.332;2023-04-07T08:34:05;11.40;99.90
39665;DHT22;26679;50.872;4.332;2023-04-07T08:39:06;11.40;99.90
39665;DHT22;26679;50.872;4.332;2023-04-07T08:44:06;10.30;99.90
39665;DHT22;26679;50.872;4.332;2023-04-07T08:46:32;11.20;99.90
39665;DHT22;26679;50.872;4.332;2023-04-07T08:51:49;11.10;99.90
39665;DHT22;26679;50.872;4.332;2023-04-07T08:57:15;11.40;99.90
39665;DHT22;26679;50.872;4.332;2023-04-07T08:59:56;11.50;99.90
39665;DHT22;26679;50.872;4.332;2023-04-07T09:23:00;13.90;99.90
39665;DHT22;26679;50.872;4.332;2023-04-07T09:25:28;14.80;99.90
39665;DHT22;26679;50.872;4.332;2023-04-07T09:30:31;16.30;99.90
39665;DHT22;26679;50.872;4.332;2023-04-07T09:33:08;16.90;99.90
39665;DHT22;26679;50.872;4.332;2023-04-07T09:35:51;16.90;99.90
39665;DHT22;26679;50.872;4.332;2023-04-07T09:38:20;16.70;99.90
39665;DHT22;26679;50.872;4.332;2023-04-07T09:40:49;16.10;99.90
39665;DHT22;26679;50.872;4.332;2023-04-07T09:43:18;15.60;99.90
39665;DHT22;26679;50.872;4.332;2023-04-07T09:45:44;15.30;99.90
39665;DHT22;26679;50.872;4.332;2023-04-07T09:48:19;14.80;99.90
39665;DHT22;26679;50.872;4.332;2023-04-07T09:50:45;14.90;99.90
39665;DHT22;26679;50.872;4.332;2023-04-07T09:56:13;14.90;99.90
39665;DHT22;26679;50.872;4.332;2023-04-07T09:58:45;14.80;99.90
39665;DHT22;26679;50.872;4.332;2023-04-07T10:03:57;14.90;99.90
39665;DHT22;26679;50.872;4.332;2023-04-07T10:06:26;14.50;99.90
39665;DHT22;26679;50.872;4.332;2023-04-07T10:08:52;15.70;99.90
39665;DHT22;26679;50.872;4.332;2023-04-07T10:11:17;17.50;99.90
39665;DHT22;26679;50.872;4.332;2023-04-07T10:13:45;19.40;99.90
39665;DHT22;26679;50.872;4.332;2023-04-07T10:16:10;19.50;97.50
39665;DHT22;26679;50.872;4.332;2023-04-07T10:18:36;19.70;97.90
39665;DHT22;26679;50.872;4.332;2023-04-07T10:21:04;19.90;98.40
39665;DHT22;26679;50.872;4.332;2023-04-07T10:26:16;18.10;98.60
39665;DHT22;26679;50.872;4.332;2023-04-07T10:28:44;17.80;98.90
39665;DHT22;26679;50.872;4.332;2023-04-07T10:31:11;16.70;99.90
39665;DHT22;26679;50.872;4.332;2023-04-07T10:33:43;16.20;99.90
39665;DHT22;26679;50.872;4.332;2023-04-07T10:36:13;15.60;99.90
39665;DHT22;26679;50.872;4.332;2023-04-07T10:38:40;15.20;99.90
39665;DHT22;26679;50.872;4.332;2023-04-07T10:43:43;14.50;99.90
39665;DHT22;26679;50.872;4.332;2023-04-07T10:46:09;14.40;99.90
39665;DHT22;26679;50.872;4.332;2023-04-07T10:48:38;12.80;99.90
39665;DHT22;26679;50.872;4.332;2023-04-07T10:54:13;14.00;99.90
39665;DHT22;26679;50.872;4.332;2023-04-07T10:56:25;12.60;99.90
39665;DHT22;26679;50.872;4.332;2023-04-07T10:59:05;13.60;99.90
39665;DHT22;26679;50.872;4.332;2023-04-07T11:01:36;13.10;99.90
39665;DHT22;26679;50.872;4.332;2023-04-07T11:04:02;13.80;99.90
39665;DHT22;26679;50.872;4.332;2023-04-07T11:06:30;13.20;99.90
39665;DHT22;26679;50.872;4.332;2023-04-07T11:08:58;13.70;99.90
39665;DHT22;26679;50.872;4.332;2023-04-07T11:14:12;13.80;99.90
39665;DHT22;26679;50.872;4.332;2023-04-07T11:16:51;13.90;99.90
39665;DHT22;26679;50.872;4.332;2023-04-07T11:19:16;13.80;99.90
39665;DHT22;26679;50.872;4.332;2023-04-07T11:21:42;13.60;99.90
39665;DHT22;26679;50.872;4.332;2023-04-07T11:24:08;13.40;99.90
39665;DHT22;26679;50.872;4.332;2023-04-07T11:26:37;14.20;99.90
39665;DHT22;26679;50.872;4.332;2023-04-07T11:29:03;14.20;99.90
39665;DHT22;26679;50.872;4.332;2023-04-07T11:31:35;14.20;99.90
39665;DHT22;26679;50.872;4.332;2023-04-07T11:34:03;14.30;99.90
39665;DHT22;26679;50.872;4.332;2023-04-07T11:36:37;13.90;99.90
39665;DHT22;26679;50.872;4.332;2023-04-07T11:39:04;13.80;99.90
39665;DHT22;26679;50.872;4.332;2023-04-07T11:41:43;13.40;99.90
39665;DHT22;26679;50.872;4.332;2023-04-07T11:44:10;12.20;99.90
39665;DHT22;26679;50.872;4.332;2023-04-07T11:46:51;12.70;99.90
39665;DHT22;26679;50.872;4.332;2023-04-07T11:49:18;12.90;99.90
39665;DHT22;26679;50.872;4.332;2023-04-07T11:51:46;12.90;99.90
39665;DHT22;26679;50.872;4.332;2023-04-07T11:54:12;12.70;99.90
39665;DHT22;26679;50.872;4.332;2023-04-07T11:59:17;14.00;99.90
39665;DHT22;26679;50.872;4.332;2023-04-07T12:01:45;13.20;99.90
39665;DHT22;26679;50.872;4.332;2023-04-07T12:04:12;13.90;99.90
39665;DHT22;26679;50.872;4.332;2023-04-07T12:06:47;13.90;99.90
39665;DHT22;26679;50.872;4.332;2023-04-07T12:09:26;13.30;99.90
39665;DHT22;26679;50.872;4.332;2023-04-07T12:11:57;14.80;99.90
39665;DHT22;26679;50.872;4.332;2023-04-07T12:14:23;15.30;99.90
39665;DHT22;26679;50.872;4.332;2023-04-07T12:17:05;15.20;99.90
39665;DHT22;26679;50.872;4.332;2023-04-07T12:19:35;14.80;99.90
39665;DHT22;26679;50.872;4.332;2023-04-07T12:22:03;13.80;99.90
39665;DHT22;26679;50.872;4.332;2023-04-07T12:24:29;12.40;99.90
39665;DHT22;26679;50.872;4.332;2023-04-07T12:26:56;13.60;99.90
39665;DHT22;26679;50.872;4.332;2023-04-07T12:29:22;13.50;99.90
39665;DHT22;26679;50.872;4.332;2023-04-07T12:31:48;13.30;99.90
39665;DHT22;26679;50.872;4.332;2023-04-07T12:34:17;15.40;99.90
39665;DHT22;26679;50.872;4.332;2023-04-07T12:36:44;13.60;99.90
39665;DHT22;26679;50.872;4.332;2023-04-07T12:39:13;12.90;99.90
39665;DHT22;26679;50.872;4.332;2023-04-07T12:41:41;13.70;99.90
39665;DHT22;26679;50.872;4.332;2023-04-07T12:44:09;13.40;99.90
39665;DHT22;26679;50.872;4.332;2023-04-07T12:46:37;13.60;99.90
39665;DHT22;26679;50.872;4.332;2023-04-07T12:49:03;15.20;99.90
39665;DHT22;26679;50.872;4.332;2023-04-07T12:51:30;14.10;99.90
39665;DHT22;26679;50.872;4.332;2023-04-07T12:54:00;14.10;99.90
39665;DHT22;26679;50.872;4.332;2023-04-07T12:56:27;14.20;99.90
39665;DHT22;26679;50.872;4.332;2023-04-07T12:58:54;13.10;99.90
39665;DHT22;26679;50.872;4.332;2023-04-07T13:01:20;13.70;99.90
39665;DHT22;26679;50.872;4.332;2023-04-07T13:03:47;14.30;99.90
39665;DHT22;26679;50.872;4.332;2023-04-07T13:06:15;16.00;99.90
39665;DHT22;26679;50.872;4.332;2023-04-07T13:08:44;14.40;99.90
39665;DHT22;26679;50.872;4.332;2023-04-07T13:11:16;14.40;99.90
39665;DHT22;26679;50.872;4.332;2023-04-07T13:13:46;15.60;99.90
39665;DHT22;26679;50.872;4.332;2023-04-07T13:16:14;14.30;99.90
39665;DHT22;26679;50.872;4.332;2023-04-07T13:18:43;14.40;99.90
39665;DHT22;26679;50.872;4.332;2023-04-07T13:21:18;15.20;99.90
39665;DHT22;26679;50.872;4.332;2023-04-07T13:23:47;14.40;99.90
39665;DHT22;26679;50.872;4.332;2023-04-07T13:26:14;15.00;99.90
39665;DHT22;26679;50.872;4.332;2023-04-07T13:28:43;15.00;99.90
39665;DHT22;26679;50.872;4.332;2023-04-07T13:31:12;14.90;99.90
39665;DHT22;26679;50.872;4.332;2023-04-07T13:33:46;14.80;99.90
39665;DHT22;26679;50.872;4.332;2023-04-07T13:36:12;15.50;99.90
39665;DHT22;26679;50.872;4.332;2023-04-07T13:38:45;15.60;99.90
39665;DHT22;26679;50.872;4.332;2023-04-07T13:41:11;15.40;99.90
39665;DHT22;26679;50.872;4.332;2023-04-07T13:43:36;15.20;99.90
39665;DHT22;26679;50.872;4.332;2023-04-07T13:46:02;15.00;99.90
39665;DHT22;26679;50.872;4.332;2023-04-07T13:48:28;15.00;99.90
39665;DHT22;26679;50.872;4.332;2023-04-07T13:50:55;15.10;99.90
39665;DHT22;26679;50.872;4.332;2023-04-07T13:53:20;14.50;99.90
39665;DHT22;26679;50.872;4.332;2023-04-07T13:55:47;14.80;99.90
39665;DHT22;26679;50.872;4.332;2023-04-07T13:58:13;12.90;99.90
39665;DHT22;26679;50.872;4.332;2023-04-07T14:00:41;15.70;99.90
39665;DHT22;26679;50.872;4.332;2023-04-07T14:03:07;14.30;99.90
39665;DHT22;26679;50.872;4.332;2023-04-07T14:05:33;13.50;99.90
39665;DHT22;26679;50.872;4.332;2023-04-07T14:08:05;14.40;99.90
39665;DHT22;26679;50.872;4.332;2023-04-07T14:10:30;13.00;99.90
39665;DHT22;26679;50.872;4.332;2023-04-07T14:12:58;13.80;99.90
39665;DHT22;26679;50.872;4.332;2023-04-07T14:15:24;13.90;99.90
39665;DHT22;26679;50.872;4.332;2023-04-07T14:17:50;14.10;99.90
39665;DHT22;26679;50.872;4.332;2023-04-07T14:20:16;14.10;99.90
39665;DHT22;26679;50.872;4.332;2023-04-07T14:22:43;14.10;99.90
39665;DHT22;26679;50.872;4.332;2023-04-07T14:25:09;14.40;99.90
39665;DHT22;26679;50.872;4.332;2023-04-07T14:30:05;14.70;99.90
39665;DHT22;26679;50.872;4.332;2023-04-07T14:32:31;14.00;99.90
39665;DHT22;26679;50.872;4.332;2023-04-07T14:34:58;14.70;99.90
39665;DHT22;26679;50.872;4.332;2023-04-07T14:37:24;14.70;99.90
39665;DHT22;26679;50.872;4.332;2023-04-07T14:39:52;14.70;99.90
39665;DHT22;26679;50.872;4.332;2023-04-07T14:42:18;14.70;99.90
39665;DHT22;26679;50.872;4.332;2023-04-07T14:44:44;14.50;99.90
39665;DHT22;26679;50.872;4.332;2023-04-07T14:47:14;14.70;99.90
39665;DHT22;26679;50.872;4.332;2023-04-07T14:49:43;14.70;99.90
39665;DHT22;26679;50.872;4.332;2023-04-07T14:52:11;15.20;99.90
39665;DHT22;26679;50.872;4.332;2023-04-07T14:54:39;14.60;99.90
39665;DHT22;26679;50.872;4.332;2023-04-07T14:57:05;14.70;99.90
39665;DHT22;26679;50.872;4.332;2023-04-07T14:59:31;14.40;99.90
39665;DHT22;26679;50.872;4.332;2023-04-07T15:01:56;14.40;99.90
39665;DHT22;26679;50.872;4.332;2023-04-07T15:04:22;14.40;99.90
39665;DHT22;26679;50.872;4.332;2023-04-07T15:06:51;14.40;99.90
39665;DHT22;26679;50.872;4.332;2023-04-07T15:11:53;13.00;99.90
39665;DHT22;26679;50.872;4.332;2023-04-07T15:14:20;14.50;99.90
39665;DHT22;26679;50.872;4.332;2023-04-07T15:16:48;14.50;99.90
39665;DHT22;26679;50.872;4.332;2023-04-07T15:19:14;12.90;99.90
39665;DHT22;26679;50.872;4.332;2023-04-07T15:21:40;14.30;99.90
39665;DHT22;26679;50.872;4.332;2023-04-07T15:24:13;14.20;99.90
39665;DHT22;26679;50.872;4.332;2023-04-07T15:26:47;12.60;99.90
39665;DHT22;26679;50.872;4.332;2023-04-07T15:29:13;13.80;99.90
39665;DHT22;26679;50.872;4.332;2023-04-07T15:31:39;13.00;99.90
39665;DHT22;26679;50.872;4.332;2023-04-07T15:34:05;13.40;99.90
39665;DHT22;26679;50.872;4.332;2023-04-07T15:36:31;13.60;99.90
39665;DHT22;26679;50.872;4.332;2023-04-07T15:38:59;14.80;99.90
39665;DHT22;26679;50.872;4.332;2023-04-07T15:41:33;12.90;99.90
39665;DHT22;26679;50.872;4.332;2023-04-07T15:44:01;13.40;99.90
39665;DHT22;26679;50.872;4.332;2023-04-07T15:46:28;12.00;99.90
39665;DHT22;26679;50.872;4.332;2023-04-07T15:48:58;14.20;99.90
39665;DHT22;26679;50.872;4.332;2023-04-07T15:51:23;13.40;99.90
39665;DHT22;26679;50.872;4.332;2023-04-07T15:53:51;15.20;99.90
39665;DHT22;26679;50.872;4.332;2023-04-07T15:56:17;13.80;99.90
39665;DHT22;26679;50.872;4.332;2023-04-07T15:58:42;13.30;99.90
39665;DHT22;26679;50.872;4.332;2023-04-07T16:01:09;13.30;99.90
39665;DHT22;26679;50.872;4.332;2023-04-07T16:03:51;13.50;99.90
39665;DHT22;26679;50.872;4.332;2023-04-07T16:06:51;13.40;99.90
39665;DHT22;26679;50.872;4.332;2023-04-07T16:09:18;13.90;99.90
39665;DHT22;26679;50.872;4.332;2023-04-07T16:12:00;13.00;99.90
39665;DHT22;26679;50.872;4.332;2023-04-07T16:14:37;13.00;99.90
39665;DHT22;26679;50.872;4.332;2023-04-07T16:17:10;13.00;99.90
39665;DHT22;26679;50.872;4.332;2023-04-07T16:19:39;13.10;99.90
39665;DHT22;26679;50.872;4.332;2023-04-07T16:22:04;13.10;99.90
39665;DHT22;26679;50.872;4.332;2023-04-07T16:24:35;12.90;99.90
39665;DHT22;26679;50.872;4.332;2023-04-07T16:29:39;11.80;99.90
39665;DHT22;26679;50.872;4.332;2023-04-07T16:32:05;12.70;99.90
39665;DHT22;26679;50.872;4.332;2023-04-07T16:34:34;12.80;99.90
39665;DHT22;26679;50.872;4.332;2023-04-07T16:37:05;12.50;99.90
39665;DHT22;26679;50.872;4.332;2023-04-07T16:39:34;12.50;99.90
39665;DHT22;26679;50.872;4.332;2023-04-07T16:42:00;12.60;99.90
39665;DHT22;26679;50.872;4.332;2023-04-07T16:44:25;12.70;99.90
39665;DHT22;26679;50.872;4.332;2023-04-07T16:46:54;12.10;99.90